Time;durP1;ratioP1;P1;durP2;ratioP2;P2;SDS_P1;SDS_P2;PMS_P1;PMS_P2;Temp;Humidity;BMP_temperature;BMP_pressure;BME280_temperature;BME280_humidity;BME280_pressure;Samples;Min_cycle;Max_cycle;Signal;HPM_P1;HPM_P2
2023/06/29 00:01:07;;;;;;;15.25;11.85;;;22.90;90.60;;;;;;5036299;28;20112;-79
2023/06/29 00:03:33;;;;;;;18.20;13.02;;;23.00;90.60;;;;;;5034749;28;20116;-79
2023/06/29 00:05:59;;;;;;;13.32;10.48;;;22.90;90.50;;;;;;5035865;28;20037;-79
2023/06/29 00:08:26;;;;;;;14.65;12.02;;;22.90;90.60;;;;;;5034587;28;20040;-79
2023/06/29 00:10:52;;;;;;;15.25;12.02;;;23.00;90.60;;;;;;5036148;28;20437;-79
2023/06/29 00:13:19;;;;;;;18.58;14.43;;;23.00;90.60;;;;;;5036338;28;20446;-79
2023/06/29 00:15:45;;;;;;;17.13;13.35;;;22.90;90.60;;;;;;5034745;28;20120;-79
2023/06/29 00:18:12;;;;;;;13.63;10.98;;;22.90;90.70;;;;;;5035749;28;20041;-79
2023/06/29 00:20:41;;;;;;;15.43;12.57;;;22.90;90.70;;;;;;5035337;28;20037;-79
2023/06/29 00:23:07;;;;;;;14.48;11.23;;;22.90;90.60;;;;;;5035814;28;20367;-79
2023/06/29 00:25:33;;;;;;;17.40;13.40;;;22.90;90.60;;;;;;5035315;28;20028;-79
2023/06/29 00:27:59;;;;;;;13.00;10.70;;;22.90;90.60;;;;;;5034300;28;20370;-80
2023/06/29 00:30:25;;;;;;;13.45;10.82;;;22.90;90.60;;;;;;5033639;28;20041;-79
2023/06/29 00:32:51;;;;;;;13.25;10.88;;;22.90;90.70;;;;;;5035734;28;20035;-78
2023/06/29 00:35:16;;;;;;;15.52;11.75;;;22.90;90.60;;;;;;5035242;28;20029;-79
2023/06/29 00:37:42;;;;;;;16.80;11.32;;;22.90;90.70;;;;;;5035300;28;20461;-79
2023/06/29 00:40:09;;;;;;;12.52;10.63;;;22.90;90.60;;;;;;5034885;28;20093;-79
2023/06/29 00:42:35;;;;;;;14.85;11.75;;;22.90;90.60;;;;;;5034280;28;20430;-80
2023/06/29 00:45:02;;;;;;;12.80;10.95;;;22.90;90.60;;;;;;5034828;28;20528;-79
2023/06/29 00:47:29;;;;;;;11.93;10.38;;;22.90;90.60;;;;;;5032757;28;20060;-79
2023/06/29 00:49:56;;;;;;;12.57;10.18;;;22.80;90.50;;;;;;5035080;28;20068;-79
2023/06/29 00:52:22;;;;;;;14.88;12.27;;;22.80;90.50;;;;;;5034785;28;20481;-79
2023/06/29 00:54:48;;;;;;;12.93;9.43;;;22.80;90.60;;;;;;5035107;28;20072;-79
2023/06/29 00:57:14;;;;;;;10.73;9.60;;;22.80;90.60;;;;;;5034061;28;20029;-79
2023/06/29 00:59:39;;;;;;;11.38;9.85;;;22.80;90.50;;;;;;5034318;28;20440;-79
2023/06/29 01:02:07;;;;;;;18.83;14.57;;;22.90;90.50;;;;;;5034475;28;20042;-80
2023/06/29 01:04:35;;;;;;;16.95;13.77;;;22.80;90.80;;;;;;5034499;28;20033;-79
2023/06/29 01:07:12;;;;;;;17.50;12.05;;;22.80;91.10;;;;;;5034516;28;20095;-79
2023/06/29 01:09:38;;;;;;;14.63;10.32;;;22.80;91.00;;;;;;5034925;28;20033;-79
2023/06/29 01:12:05;;;;;;;13.52;11.50;;;22.80;91.00;;;;;;5034891;28;20034;-80
2023/06/29 01:14:32;;;;;;;18.10;13.50;;;22.80;90.90;;;;;;5032901;28;20462;-80
2023/06/29 01:16:59;;;;;;;16.05;13.43;;;22.70;90.90;;;;;;5034754;28;20025;-79
2023/06/29 01:19:29;;;;;;;13.95;11.65;;;22.80;90.90;;;;;;5033921;28;20402;-80
2023/06/29 01:22:14;;;;;;;15.90;12.25;;;22.80;90.90;;;;;;5033996;28;20478;-79
2023/06/29 01:24:40;;;;;;;12.30;10.60;;;22.80;90.80;;;;;;5033992;28;20071;-79
2023/06/29 01:27:12;;;;;;;13.07;10.55;;;22.80;90.70;;;;;;5033879;28;20474;-79
2023/06/29 01:29:39;;;;;;;17.83;13.75;;;22.80;90.70;;;;;;5033809;28;20033;-79
2023/06/29 01:32:07;;;;;;;13.32;11.38;;;22.80;90.80;;;;;;5034152;28;20040;-79
2023/06/29 01:34:37;;;;;;;15.68;13.00;;;22.80;90.80;;;;;;5034228;28;20044;-79
2023/06/29 01:37:14;;;;;;;17.38;13.32;;;22.80;90.80;;;;;;5033882;28;20057;-79
2023/06/29 01:40:03;;;;;;;13.50;11.15;;;22.80;90.80;;;;;;5033865;28;20041;-79
2023/06/29 01:42:32;;;;;;;16.25;12.63;;;22.80;90.80;;;;;;5034156;28;20045;-79
2023/06/29 01:45:00;;;;;;;14.15;12.20;;;22.80;90.80;;;;;;5033806;28;20101;-79
2023/06/29 01:47:26;;;;;;;16.58;13.05;;;22.80;90.90;;;;;;5033450;28;20148;-79
2023/06/29 01:49:52;;;;;;;17.42;13.68;;;22.80;90.90;;;;;;5033641;28;20088;-80
2023/06/29 01:52:18;;;;;;;15.02;11.57;;;22.80;90.90;;;;;;5033637;28;20033;-79
2023/06/29 01:54:44;;;;;;;16.27;13.63;;;22.80;90.90;;;;;;5033900;28;20045;-79
2023/06/29 01:57:10;;;;;;;15.10;12.48;;;22.80;90.90;;;;;;5032504;28;20412;-79
2023/06/29 01:59:36;;;;;;;17.13;13.55;;;22.80;90.90;;;;;;5015631;28;20040;-79
2023/06/29 02:02:02;;;;;;;19.02;15.18;;;22.80;90.90;;;;;;5032218;28;20044;-79
2023/06/29 02:04:28;;;;;;;17.40;13.52;;;22.80;90.90;;;;;;5033739;28;20026;-79
2023/06/29 02:06:54;;;;;;;17.60;14.57;;;22.80;91.00;;;;;;5033754;28;20377;-79
2023/06/29 02:09:19;;;;;;;18.70;14.73;;;22.80;91.00;;;;;;5033661;28;20465;-79
2023/06/29 02:11:45;;;;;;;22.38;17.25;;;22.80;91.00;;;;;;5032361;28;20064;-79
2023/06/29 02:14:10;;;;;;;19.73;15.23;;;22.80;91.10;;;;;;5033855;28;20026;-79
2023/06/29 02:16:36;;;;;;;22.00;18.05;;;22.80;91.50;;;;;;5033478;28;20359;-79
2023/06/29 02:19:02;;;;;;;20.92;16.80;;;22.80;91.20;;;;;;5032943;28;20052;-79
2023/06/29 02:21:28;;;;;;;17.83;14.68;;;22.80;91.30;;;;;;5033332;28;20389;-80
2023/06/29 02:23:53;;;;;;;17.00;14.30;;;22.80;91.30;;;;;;5033422;28;20030;-79
2023/06/29 02:26:19;;;;;;;17.90;14.60;;;22.80;91.30;;;;;;5033233;28;20091;-79
2023/06/29 02:28:45;;;;;;;19.58;16.65;;;22.80;91.40;;;;;;5033147;28;20127;-79
2023/06/29 02:31:11;;;;;;;20.00;16.13;;;22.80;91.40;;;;;;5033370;28;20033;-79
2023/06/29 02:33:36;;;;;;;17.15;13.75;;;22.80;91.40;;;;;;5031828;28;20034;-79
2023/06/29 02:36:02;;;;;;;18.67;14.18;;;22.80;91.40;;;;;;5032020;28;20116;-79
2023/06/29 02:38:28;;;;;;;17.58;13.95;;;22.80;91.40;;;;;;5032974;28;20481;-79
2023/06/29 02:40:53;;;;;;;16.05;13.18;;;22.80;91.40;;;;;;5032729;28;20052;-79
2023/06/29 02:43:19;;;;;;;19.67;15.05;;;22.80;91.40;;;;;;5015263;28;20469;-79
2023/06/29 02:45:44;;;;;;;21.50;16.70;;;22.80;91.30;;;;;;5032948;28;20060;-79
2023/06/29 02:48:10;;;;;;;19.60;15.18;;;22.80;91.40;;;;;;5033026;28;20057;-79
2023/06/29 02:50:37;;;;;;;22.58;17.20;;;22.80;91.40;;;;;;5031754;28;20100;-79
2023/06/29 02:53:02;;;;;;;21.67;15.23;;;22.80;91.40;;;;;;5033158;28;20428;-79
2023/06/29 02:55:30;;;;;;;19.45;15.60;;;22.80;91.40;;;;;;5014988;28;20033;-79
2023/06/29 02:57:56;;;;;;;17.42;15.27;;;22.80;91.50;;;;;;5032851;28;20025;-79
2023/06/29 03:00:21;;;;;;;20.73;16.90;;;22.80;91.50;;;;;;5031842;28;20036;-79
2023/06/29 03:02:47;;;;;;;18.50;14.02;;;22.70;91.60;;;;;;5032876;28;20056;-80
2023/06/29 03:05:13;;;;;;;16.88;14.45;;;22.70;91.50;;;;;;5032831;28;20030;-79
2023/06/29 03:07:38;;;;;;;21.83;16.27;;;22.80;91.60;;;;;;5032788;28;20036;-80
2023/06/29 03:10:04;;;;;;;15.23;12.50;;;22.70;91.60;;;;;;5031827;28;20039;-79
2023/06/29 03:12:30;;;;;;;20.40;14.52;;;22.70;91.60;;;;;;5036915;28;20021;-79
2023/06/29 03:14:56;;;;;;;18.42;15.02;;;22.80;91.60;;;;;;5035295;28;20036;-79
2023/06/29 03:17:23;;;;;;;19.33;14.85;;;22.70;91.60;;;;;;5036465;28;20036;-79
2023/06/29 03:19:49;;;;;;;22.80;17.58;;;22.80;91.60;;;;;;5036391;28;20057;-79
2023/06/29 03:22:14;;;;;;;18.23;15.60;;;22.80;91.60;;;;;;5036430;28;20040;-80
2023/06/29 03:24:40;;;;;;;17.05;14.27;;;22.80;91.80;;;;;;5036412;28;20135;-79
2023/06/29 03:27:06;;;;;;;19.17;14.73;;;22.80;91.80;;;;;;5036417;28;20117;-79
2023/06/29 03:29:32;;;;;;;21.20;16.13;;;22.80;91.80;;;;;;5035135;28;20040;-79
2023/06/29 03:31:59;;;;;;;19.13;14.52;;;22.70;91.80;;;;;;5036333;28;20030;-79
2023/06/29 03:34:25;;;;;;;21.52;17.10;;;22.70;91.90;;;;;;5036313;28;20033;-79
2023/06/29 03:36:51;;;;;;;19.35;14.70;;;22.70;92.00;;;;;;5035134;28;20035;-78
2023/06/29 03:39:16;;;;;;;20.90;16.95;;;22.70;92.00;;;;;;5036172;28;20432;-79
2023/06/29 03:41:42;;;;;;;20.63;15.93;;;22.70;92.20;;;;;;5036102;28;20109;-79
2023/06/29 03:44:08;;;;;;;22.83;17.15;;;22.70;92.00;;;;;;5035317;28;20032;-79
2023/06/29 03:46:34;;;;;;;19.73;16.70;;;22.70;91.90;;;;;;5034797;28;20033;-79
2023/06/29 03:48:59;;;;;;;21.10;15.80;;;22.70;92.00;;;;;;5036315;28;20053;-79
2023/06/29 03:51:25;;;;;;;18.95;15.40;;;22.80;92.10;;;;;;5036572;28;20226;-79
2023/06/29 03:53:51;;;;;;;20.13;16.10;;;22.70;92.10;;;;;;5034606;28;20029;-80
2023/06/29 03:56:16;;;;;;;22.02;16.80;;;22.70;92.10;;;;;;5036056;28;20366;-79
2023/06/29 03:58:42;;;;;;;18.95;16.13;;;22.70;92.10;;;;;;5035724;28;20038;-79
2023/06/29 04:01:08;;;;;;;18.63;14.73;;;22.70;92.10;;;;;;5017984;28;20030;-79
2023/06/29 04:03:33;;;;;;;18.40;14.27;;;22.70;92.20;;;;;;5036167;28;20030;-79
2023/06/29 04:05:59;;;;;;;18.98;15.32;;;22.70;92.10;;;;;;5035437;28;20057;-79
2023/06/29 04:08:25;;;;;;;26.15;18.48;;;22.70;92.10;;;;;;5035636;28;20044;-79
2023/06/29 04:10:50;;;;;;;22.13;16.02;;;22.70;92.30;;;;;;5035639;28;20097;-80
2023/06/29 04:13:16;;;;;;;16.00;14.02;;;22.70;92.30;;;;;;5035808;28;20537;-79
2023/06/29 04:15:41;;;;;;;16.75;14.00;;;22.70;92.30;;;;;;5035776;28;20100;-80
2023/06/29 04:18:07;;;;;;;19.83;14.63;;;22.70;92.20;;;;;;5034627;28;20064;-79
2023/06/29 04:20:33;;;;;;;14.93;12.57;;;22.70;92.20;;;;;;5035118;28;20033;-80
2023/06/29 04:22:58;;;;;;;21.58;16.33;;;22.70;92.10;;;;;;5035117;28;20060;-79
2023/06/29 04:25:24;;;;;;;24.95;18.25;;;22.70;92.10;;;;;;5035368;28;20079;-79
2023/06/29 04:27:49;;;;;;;20.70;16.40;;;22.70;92.30;;;;;;5034106;28;20021;-79
2023/06/29 04:30:17;;;;;;;18.48;14.90;;;22.70;92.60;;;;;;5034963;28;20067;-80
2023/06/29 04:32:44;;;;;;;21.95;17.15;;;22.70;92.30;;;;;;5035260;28;20079;-79
2023/06/29 04:35:09;;;;;;;19.75;14.75;;;22.70;92.30;;;;;;5034963;28;20457;-80
2023/06/29 04:37:44;;;;;;;22.10;15.77;;;22.70;92.30;;;;;;5035036;28;20030;-79
2023/06/29 04:40:14;;;;;;;16.88;13.23;;;22.70;92.20;;;;;;5033898;28;20033;-80
2023/06/29 04:42:46;;;;;;;17.38;13.82;;;22.70;92.20;;;;;;5035025;28;20038;-80
2023/06/29 04:45:17;;;;;;;21.33;15.60;;;22.70;92.20;;;;;;5035479;28;20065;-80
2023/06/29 04:47:49;;;;;;;17.25;14.63;;;22.70;92.20;;;;;;5034592;28;20509;-80
2023/06/29 04:50:15;;;;;;;16.88;13.40;;;22.70;92.20;;;;;;5033895;28;20389;-80
2023/06/29 04:52:41;;;;;;;19.73;14.80;;;22.70;92.20;;;;;;5034965;28;20025;-79
2023/06/29 04:55:10;;;;;;;18.13;14.10;;;22.70;92.10;;;;;;5035073;28;20055;-79
2023/06/29 04:57:36;;;;;;;18.67;14.45;;;22.70;92.20;;;;;;5033467;28;20036;-79
2023/06/29 05:00:07;;;;;;;21.40;16.10;;;22.80;92.30;;;;;;5033749;28;20038;-79
2023/06/29 05:02:32;;;;;;;26.83;19.48;;;22.70;92.30;;;;;;5034698;28;20040;-80
2023/06/29 05:04:58;;;;;;;23.75;16.77;;;22.70;92.60;;;;;;5034474;28;20034;-80
2023/06/29 05:07:24;;;;;;;19.08;14.65;;;22.70;92.80;;;;;;5034380;28;20378;-79
2023/06/29 05:09:49;;;;;;;21.15;17.33;;;22.70;92.70;;;;;;5033208;28;20159;-79
2023/06/29 05:12:15;;;;;;;19.30;16.58;;;22.60;92.80;;;;;;5034216;28;20034;-80
2023/06/29 05:14:41;;;;;;;22.38;17.10;;;22.60;92.90;;;;;;5035010;28;20037;-79
2023/06/29 05:17:06;;;;;;;17.08;13.38;;;22.60;92.90;;;;;;5034301;28;20029;-82
2023/06/29 05:19:32;;;;;;;26.77;18.27;;;22.70;93.00;;;;;;5034425;28;20043;-80
2023/06/29 05:21:58;;;;;;;22.33;17.75;;;22.60;93.20;;;;;;5034301;28;20437;-78
2023/06/29 05:24:25;;;;;;;21.98;17.00;;;22.60;93.20;;;;;;5034494;28;20030;-79
2023/06/29 05:26:51;;;;;;;20.45;17.30;;;22.60;93.10;;;;;;5034223;28;20037;-79
2023/06/29 05:29:16;;;;;;;28.70;20.02;;;22.70;93.10;;;;;;5034463;28;20421;-79
2023/06/29 05:31:42;;;;;;;23.60;16.17;;;22.60;93.20;;;;;;5034014;28;20034;-79
2023/06/29 05:34:07;;;;;;;17.35;14.40;;;22.60;93.30;;;;;;5033636;28;20025;-79
2023/06/29 05:36:33;;;;;;;24.38;19.05;;;22.60;93.10;;;;;;5034055;28;20065;-79
2023/06/29 05:38:59;;;;;;;16.20;13.23;;;22.60;93.10;;;;;;5034011;28;20150;-79
2023/06/29 05:41:24;;;;;;;30.15;20.13;;;22.60;93.10;;;;;;5032673;28;20114;-80
2023/06/29 05:43:50;;;;;;;18.63;14.82;;;22.70;93.10;;;;;;5033804;28;20026;-80
2023/06/29 05:46:16;;;;;;;25.20;17.65;;;22.70;93.20;;;;;;5034572;28;20466;-80
2023/06/29 05:48:41;;;;;;;19.58;15.60;;;22.70;93.30;;;;;;5032441;28;20179;-80
2023/06/29 05:51:07;;;;;;;17.98;14.38;;;22.70;93.30;;;;;;5033276;28;20040;-80
2023/06/29 05:53:33;;;;;;;25.95;19.40;;;22.70;93.40;;;;;;5033675;28;20033;-80
2023/06/29 05:55:58;;;;;;;22.08;16.80;;;22.70;93.50;;;;;;5032392;28;20103;-80
2023/06/29 05:58:24;;;;;;;18.20;14.32;;;22.70;93.70;;;;;;5032018;28;20053;-80
2023/06/29 06:00:51;;;;;;;21.02;15.80;;;22.80;93.50;;;;;;5033905;28;20063;-80
2023/06/29 06:03:17;;;;;;;22.13;18.85;;;22.80;93.70;;;;;;5033783;28;20040;-80
2023/06/29 06:05:42;;;;;;;19.60;15.35;;;22.90;93.80;;;;;;5033763;28;20034;-81
2023/06/29 06:08:08;;;;;;;20.95;15.52;;;22.90;94.00;;;;;;5033783;28;20454;-81
2023/06/29 06:10:34;;;;;;;28.92;21.00;;;22.90;94.00;;;;;;5033185;28;20037;-80
2023/06/29 06:12:59;;;;;;;28.67;21.48;;;22.80;94.30;;;;;;5033462;28;20025;-80
2023/06/29 06:15:25;;;;;;;25.45;19.20;;;22.80;94.20;;;;;;5033515;28;20025;-80
2023/06/29 06:17:50;;;;;;;24.73;18.60;;;22.80;94.30;;;;;;5033487;28;20029;-79
2023/06/29 06:20:16;;;;;;;34.38;22.25;;;22.80;94.10;;;;;;5015691;28;20057;-80
2023/06/29 06:22:42;;;;;;;22.55;17.83;;;22.80;94.10;;;;;;5033504;28;20534;-80
2023/06/29 06:25:08;;;;;;;29.98;20.80;;;22.80;94.00;;;;;;5033690;28;20030;-79
2023/06/29 06:27:34;;;;;;;24.58;18.75;;;22.80;94.00;;;;;;5032378;28;20359;-80
2023/06/29 06:30:04;;;;;;;24.92;18.95;;;22.80;94.10;;;;;;5033210;28;20041;-81
2023/06/29 06:32:30;;;;;;;29.90;22.20;;;22.80;94.10;;;;;;5033170;28;20026;-81
2023/06/29 06:34:55;;;;;;;26.85;19.10;;;22.80;94.30;;;;;;5031668;28;20441;-80
2023/06/29 06:37:21;;;;;;;24.88;19.60;;;22.70;94.20;;;;;;5033688;28;20064;-80
2023/06/29 06:39:47;;;;;;;30.33;23.33;;;22.70;94.50;;;;;;5033143;28;20042;-81
2023/06/29 06:42:12;;;;;;;29.23;21.60;;;22.70;94.20;;;;;;5033286;28;20036;-81
2023/06/29 06:44:52;;;;;;;33.47;22.88;;;22.60;94.40;;;;;;5033171;28;20032;-79
2023/06/29 06:47:18;;;;;;;30.15;21.08;;;22.60;94.60;;;;;;5036921;28;20456;-81
2023/06/29 06:49:44;;;;;;;31.80;22.17;;;22.50;94.60;;;;;;5037149;28;20034;-80
2023/06/29 06:52:10;;;;;;;31.90;21.42;;;22.50;94.70;;;;;;5035675;28;20033;-82
2023/06/29 06:54:35;;;;;;;28.83;22.02;;;22.50;94.70;;;;;;5036905;28;20048;-80
2023/06/29 06:57:01;;;;;;;31.80;21.00;;;22.50;94.70;;;;;;5035617;28;20041;-81
2023/06/29 06:59:27;;;;;;;33.97;22.15;;;22.60;94.70;;;;;;5037101;28;20041;-81
2023/06/29 07:01:52;;;;;;;30.88;20.80;;;22.50;94.60;;;;;;5039842;28;20026;-84
2023/06/29 07:04:18;;;;;;;26.15;19.50;;;22.50;94.70;;;;;;5040447;28;20038;-79
2023/06/29 07:06:45;;;;;;;27.88;20.02;;;22.60;94.70;;;;;;5037817;28;20033;-78
2023/06/29 07:09:11;;;;;;;24.83;18.92;;;22.50;94.60;;;;;;5036818;28;20033;-79
2023/06/29 07:11:37;;;;;;;30.10;21.23;;;22.50;94.60;;;;;;5035431;28;20057;-79
2023/06/29 07:14:03;;;;;;;26.90;19.85;;;22.50;94.60;;;;;;5035439;28;20036;-78
2023/06/29 07:16:28;;;;;;;28.45;20.38;;;22.50;94.50;;;;;;5036017;28;20021;-79
2023/06/29 07:19:06;;;;;;;28.98;20.45;;;22.60;94.70;;;;;;5034947;28;20041;-78
2023/06/29 07:21:32;;;;;;;33.05;22.42;;;22.50;94.20;;;;;;5036472;28;20034;-80
2023/06/29 07:23:58;;;;;;;28.52;21.85;;;22.50;94.10;;;;;;5034954;28;20117;-78
2023/06/29 07:26:24;;;;;;;29.48;20.77;;;22.50;94.10;;;;;;5035431;28;20033;-80
2023/06/29 07:28:50;;;;;;;23.38;17.88;;;22.40;94.20;;;;;;5036079;28;20109;-78
2023/06/29 07:31:16;;;;;;;29.08;20.10;;;22.40;94.20;;;;;;5036112;28;20033;-78
2023/06/29 07:33:42;;;;;;;32.05;21.58;;;22.40;94.20;;;;;;5035991;28;20033;-78
2023/06/29 07:36:08;;;;;;;28.50;20.73;;;22.50;94.20;;;;;;5036206;28;20030;-78
2023/06/29 07:38:34;;;;;;;28.38;20.15;;;22.50;94.30;;;;;;5035997;28;20481;-79
2023/06/29 07:41:03;;;;;;;27.88;21.70;;;22.50;94.10;;;;;;5035739;28;20030;-79
2023/06/29 07:43:28;;;;;;;28.95;21.20;;;22.50;94.00;;;;;;5035771;28;20079;-78
2023/06/29 07:45:55;;;;;;;24.98;19.27;;;22.50;93.90;;;;;;5034591;28;20033;-79
2023/06/29 07:48:21;;;;;;;27.00;19.67;;;22.50;93.90;;;;;;5035961;28;20054;-79
2023/06/29 07:50:46;;;;;;;25.73;18.85;;;22.50;93.90;;;;;;5036126;28;20419;-79
2023/06/29 07:53:12;;;;;;;28.90;19.38;;;22.50;93.90;;;;;;5035304;28;20048;-80
2023/06/29 07:55:37;;;;;;;26.42;19.02;;;22.60;93.90;;;;;;5035357;28;20033;-80
2023/06/29 07:58:03;;;;;;;28.70;19.15;;;22.60;93.90;;;;;;5035256;28;20033;-79
2023/06/29 08:00:29;;;;;;;25.45;17.95;;;22.60;94.00;;;;;;5034256;28;20042;-78
2023/06/29 08:02:54;;;;;;;27.75;20.20;;;22.70;93.80;;;;;;5034345;28;20025;-80
2023/06/29 08:05:21;;;;;;;30.13;19.42;;;22.70;93.70;;;;;;5018411;28;20071;-80
2023/06/29 08:07:47;;;;;;;27.45;20.05;;;22.70;93.60;;;;;;5036141;28;20091;-80
2023/06/29 08:10:14;;;;;;;29.27;19.83;;;22.70;93.40;;;;;;5035781;28;20038;-79
2023/06/29 08:12:39;;;;;;;25.55;18.70;;;22.70;92.80;;;;;;5035513;28;20029;-79
2023/06/29 08:15:06;;;;;;;23.55;17.77;;;22.70;92.70;;;;;;5035754;28;20037;-79
2023/06/29 08:17:31;;;;;;;27.85;19.38;;;22.70;92.70;;;;;;5033772;28;20029;-80
2023/06/29 08:19:57;;;;;;;25.10;18.35;;;22.80;92.60;;;;;;5035465;28;20037;-79
2023/06/29 08:22:22;;;;;;;25.15;17.35;;;22.80;92.70;;;;;;5035330;28;20030;-79
2023/06/29 08:24:48;;;;;;;25.52;18.27;;;22.80;92.70;;;;;;5035454;28;20033;-79
2023/06/29 08:27:14;;;;;;;28.40;17.38;;;22.90;92.40;;;;;;5035147;28;20500;-79
2023/06/29 08:29:40;;;;;;;26.42;19.23;;;23.00;92.50;;;;;;5033930;28;20041;-81
2023/06/29 08:32:08;;;;;;;24.77;18.25;;;23.00;92.30;;;;;;5034129;28;20055;-79
2023/06/29 08:34:33;;;;;;;24.67;18.63;;;23.10;92.00;;;;;;5035219;28;20030;-78
2023/06/29 08:36:59;;;;;;;33.13;18.90;;;23.20;91.40;;;;;;5035148;28;20033;-78
2023/06/29 08:39:25;;;;;;;25.00;17.83;;;23.40;91.30;;;;;;5034705;28;20060;-79
2023/06/29 08:41:51;;;;;;;25.95;18.08;;;23.40;91.20;;;;;;5034402;28;20187;-79
2023/06/29 08:44:17;;;;;;;27.50;18.45;;;23.60;91.00;;;;;;5017807;28;20512;-79
2023/06/29 08:46:45;;;;;;;24.35;16.83;;;23.60;90.90;;;;;;5034713;28;20034;-78
2023/06/29 08:49:11;;;;;;;24.67;17.40;;;23.60;91.00;;;;;;5035527;28;20033;-79
2023/06/29 08:51:42;;;;;;;22.42;17.55;;;23.70;91.00;;;;;;5033591;28;20474;-79
2023/06/29 08:54:09;;;;;;;27.80;19.10;;;23.70;90.90;;;;;;5034630;28;20044;-80
2023/06/29 08:56:35;;;;;;;24.70;18.80;;;23.80;90.80;;;;;;5034554;28;20022;-78
2023/06/29 08:59:01;;;;;;;23.38;18.30;;;23.80;90.40;;;;;;5034495;28;20470;-79
2023/06/29 09:01:28;;;;;;;26.83;18.60;;;23.90;90.20;;;;;;5035268;28;20029;-79
2023/06/29 09:03:54;;;;;;;24.85;17.77;;;23.90;89.80;;;;;;5034973;28;20466;-78
2023/06/29 09:06:20;;;;;;;29.73;18.92;;;23.80;89.50;;;;;;5034930;28;20458;-78
2023/06/29 09:08:46;;;;;;;26.17;18.52;;;23.80;89.80;;;;;;5033637;28;20041;-78
2023/06/29 09:11:11;;;;;;;25.10;18.70;;;23.80;89.80;;;;;;5033198;28;20032;-79
2023/06/29 09:13:37;;;;;;;23.75;17.58;;;23.80;90.00;;;;;;5034056;28;20029;-79
2023/06/29 09:16:03;;;;;;;24.55;18.65;;;23.90;90.00;;;;;;5034084;28;20033;-79
2023/06/29 09:18:29;;;;;;;23.15;17.17;;;23.90;89.40;;;;;;5034357;28;20071;-78
2023/06/29 09:20:56;;;;;;;24.60;18.10;;;24.00;89.30;;;;;;5034719;28;20057;-78
2023/06/29 09:23:22;;;;;;;23.90;17.67;;;24.10;89.00;;;;;;5034423;28;20029;-79
2023/06/29 09:25:52;;;;;;;24.25;17.45;;;24.20;89.20;;;;;;5034514;28;20034;-78
2023/06/29 09:28:18;;;;;;;23.00;16.88;;;24.40;89.40;;;;;;5033793;28;20478;-77
2023/06/29 09:30:44;;;;;;;22.60;16.58;;;24.50;88.90;;;;;;5034295;28;20108;-79
2023/06/29 09:33:14;;;;;;;23.45;17.27;;;24.60;88.40;;;;;;5032599;28;20025;-78
2023/06/29 09:35:43;;;;;;;24.95;16.95;;;24.70;87.50;;;;;;5034301;28;20033;-78
2023/06/29 09:38:09;;;;;;;22.10;15.88;;;24.70;85.40;;;;;;5033930;28;20025;-79
2023/06/29 09:40:48;;;;;;;25.77;16.50;;;24.70;85.10;;;;;;5033599;28;20079;-78
2023/06/29 09:43:25;;;;;;;23.15;16.08;;;24.80;85.10;;;;;;5033850;28;20032;-78
2023/06/29 09:45:52;;;;;;;23.45;16.77;;;24.90;84.80;;;;;;5033628;28;20411;-76
2023/06/29 09:48:22;;;;;;;22.50;15.98;;;25.00;83.40;;;;;;5033484;28;20081;-78
2023/06/29 09:50:51;;;;;;;22.17;16.20;;;25.00;83.10;;;;;;5032558;28;20163;-78
2023/06/29 09:53:17;;;;;;;20.70;16.02;;;25.00;83.10;;;;;;5033917;28;20056;-79
2023/06/29 09:55:45;;;;;;;22.80;16.73;;;25.10;84.20;;;;;;5033294;28;20079;-79
2023/06/29 09:58:12;;;;;;;25.48;17.30;;;25.20;83.30;;;;;;5032320;28;20036;-78
2023/06/29 10:00:40;;;;;;;20.92;16.25;;;25.20;82.80;;;;;;5033788;28;20369;-79
2023/06/29 10:03:05;;;;;;;24.23;17.20;;;25.20;83.20;;;;;;5033677;28;20033;-79
2023/06/29 10:05:31;;;;;;;23.00;15.85;;;25.20;83.00;;;;;;5033567;28;20362;-78
2023/06/29 10:08:01;;;;;;;21.65;16.27;;;25.20;82.80;;;;;;5031991;28;20029;-79
2023/06/29 10:10:32;;;;;;;21.45;16.63;;;25.10;83.50;;;;;;5033330;28;20028;-79
2023/06/29 10:12:59;;;;;;;21.08;15.55;;;25.10;83.10;;;;;;5033229;28;20029;-79
2023/06/29 10:15:26;;;;;;;21.10;15.32;;;25.00;83.40;;;;;;5033292;28;20355;-79
2023/06/29 10:17:58;;;;;;;20.13;16.60;;;25.00;84.50;;;;;;5032927;28;20040;-78
2023/06/29 10:20:27;;;;;;;24.27;15.73;;;24.90;83.80;;;;;;5032964;28;20111;-79
2023/06/29 10:22:56;;;;;;;23.67;16.83;;;24.80;84.50;;;;;;5033186;28;20030;-79
2023/06/29 10:25:23;;;;;;;22.88;18.17;;;24.80;84.90;;;;;;5033311;28;20410;-86
2023/06/29 10:27:52;;;;;;;21.15;15.73;;;24.70;83.70;;;;;;5034108;28;20025;-83
2023/06/29 10:30:21;;;;;;;25.20;16.98;;;24.70;84.00;;;;;;5033992;28;20040;-83
2023/06/29 10:32:50;;;;;;;22.60;16.90;;;24.80;84.10;;;;;;5033499;28;20100;-82
2023/06/29 10:35:17;;;;;;;23.35;17.15;;;24.80;85.00;;;;;;5032360;28;20034;-83
2023/06/29 10:37:45;;;;;;;24.17;17.55;;;24.90;85.10;;;;;;5033161;28;20033;-83
2023/06/29 10:40:11;;;;;;;27.85;18.05;;;25.10;85.30;;;;;;5031490;28;20037;-83
2023/06/29 10:42:39;;;;;;;23.60;16.92;;;25.20;84.40;;;;;;5033853;28;20022;-80
2023/06/29 10:45:17;;;;;;;21.33;16.50;;;25.20;82.90;;;;;;5032127;28;20400;-83
2023/06/29 10:47:45;;;;;;;20.15;15.50;;;25.10;81.30;;;;;;5033128;28;20203;-83
2023/06/29 10:50:10;;;;;;;20.25;15.65;;;25.00;81.40;;;;;;5031643;28;20033;-83
2023/06/29 10:52:40;;;;;;;20.70;15.90;;;25.00;81.90;;;;;;5032604;28;20025;-83
2023/06/29 10:55:23;;;;;;;20.40;15.43;;;25.00;82.20;;;;;;5032909;28;20116;-81
2023/06/29 10:57:52;;;;;;;23.17;16.38;;;25.20;81.10;;;;;;5032960;28;20029;-83
2023/06/29 11:00:18;;;;;;;19.90;14.98;;;25.20;81.00;;;;;;5032785;28;20033;-83
2023/06/29 11:02:46;;;;;;;25.17;16.27;;;25.20;81.10;;;;;;5032726;28;20029;-83
2023/06/29 11:05:16;;;;;;;22.80;15.60;;;25.20;81.00;;;;;;5033207;28;20029;-81
2023/06/29 11:07:47;;;;;;;21.08;15.23;;;25.20;81.10;;;;;;5031652;28;20096;-83
2023/06/29 11:10:13;;;;;;;19.45;15.00;;;25.00;81.40;;;;;;5033230;28;20033;-83
2023/06/29 11:12:40;;;;;;;20.02;14.98;;;25.00;81.90;;;;;;5032880;28;20029;-84
2023/06/29 11:15:12;;;;;;;19.67;15.18;;;25.00;81.90;;;;;;5031639;28;20155;-83
2023/06/29 11:17:38;;;;;;;;;;;25.00;82.00;;;;;;5033544;28;20033;-84
2023/06/29 11:20:05;;;;;;;;;;;25.00;81.70;;;;;;5033498;28;19923;-85
2023/06/29 11:22:31;;;;;;;;;;;25.00;79.30;;;;;;5033736;28;19908;-83
2023/06/29 11:24:57;;;;;;;;;;;24.80;79.10;;;;;;5033618;28;20019;-83
2023/06/29 11:27:23;;;;;;;;;;;24.80;79.60;;;;;;5032834;28;20001;-83
2023/06/29 11:29:56;;;;;;;;;;;24.70;79.90;;;;;;5033374;28;19909;-83
2023/06/29 11:32:22;;;;;;;;;;;24.80;80.40;;;;;;5035774;28;19920;-83
2023/06/29 11:34:55;;;;;;;;;;;24.80;79.80;;;;;;5019388;28;19925;-84
2023/06/29 11:37:22;;;;;;;;;;;24.80;79.60;;;;;;5036621;28;19928;-83
2023/06/29 11:39:49;;;;;;;;;;;24.80;79.80;;;;;;5035348;28;20460;-83
2023/06/29 11:42:17;;;;;;;;;;;24.90;79.70;;;;;;5036948;28;19912;-84
2023/06/29 11:44:42;;;;;;;;;;;24.90;79.30;;;;;;5036383;28;19952;-83
2023/06/29 11:47:08;;;;;;;;;;;24.80;79.20;;;;;;5035281;28;19909;-82
2023/06/29 11:49:34;;;;;;;;;;;24.80;80.20;;;;;;5036565;28;19921;-84
2023/06/29 11:52:01;;;;;;;;;;;24.90;80.40;;;;;;5035104;28;19908;-83
2023/06/29 11:54:29;;;;;;;;;;;25.10;80.40;;;;;;5035423;28;20357;-83
2023/06/29 11:56:55;;;;;;;;;;;25.20;80.50;;;;;;5036753;28;19912;-83
2023/06/29 11:59:20;;;;;;;;;;;25.20;80.60;;;;;;5036050;28;19913;-84
2023/06/29 12:01:47;;;;;;;;;;;25.30;80.20;;;;;;5036303;28;20372;-82
2023/06/29 12:04:15;;;;;;;;;;;25.30;80.80;;;;;;5035859;28;19909;-82
2023/06/29 12:06:53;;;;;;;;;;;25.40;81.40;;;;;;5035751;28;19936;-82
2023/06/29 12:09:19;;;;;;;;;;;25.50;80.20;;;;;;5036333;28;19905;-82
2023/06/29 12:11:54;;;;;;;;;;;25.60;78.70;;;;;;5036746;28;19905;-82
2023/06/29 12:14:20;;;;;;;;;;;25.60;78.60;;;;;;5035978;28;19962;-82
2023/06/29 12:16:49;;;;;;;;;;;25.60;79.50;;;;;;5036207;28;19956;-83
2023/06/29 12:19:15;;;;;;;;;;;25.60;78.50;;;;;;5035501;28;19913;-84
2023/06/29 12:21:40;;;;;;;;;;;25.50;78.50;;;;;;5035840;28;19909;-84
2023/06/29 12:24:06;;;;;;;;;;;25.50;78.50;;;;;;5034647;28;19976;-84
2023/06/29 12:26:32;;;;;;;;;;;25.40;78.50;;;;;;5034268;28;19916;-84
2023/06/29 12:28:57;;;;;;;;;;;25.40;78.70;;;;;;5036308;28;20000;-83
2023/06/29 12:31:29;;;;;;;;;;;25.30;78.80;;;;;;5035556;28;19952;-83
2023/06/29 12:33:54;;;;;;;;;;;25.30;79.10;;;;;;5035698;28;19995;-83
2023/06/29 12:36:20;;;;;;;;;;;25.40;80.00;;;;;;5035322;28;19936;-83